createdAt,value
2022-10-18T03:54:18.884Z,100.00
2022-10-18T03:57:21.871Z,100.00
2022-10-18T04:00:24.502Z,100.00
2022-10-18T04:03:27.380Z,100.00
2022-10-18T04:06:29.840Z,100.00
2022-10-18T04:09:32.645Z,100.00
2022-10-18T04:12:35.120Z,100.00
2022-10-18T04:15:37.872Z,100.00
2022-10-18T04:18:40.317Z,100.00
2022-10-18T04:21:43.168Z,100.00
2022-10-18T04:24:45.661Z,100.00
2022-10-18T04:27:48.360Z,100.00
2022-10-18T04:30:54.229Z,100.00
2022-10-18T04:33:57.000Z,100.00
2022-10-18T04:36:59.533Z,100.00
2022-10-18T04:40:02.371Z,100.00
2022-10-18T04:43:04.778Z,100.00
2022-10-18T04:46:07.577Z,100.00
2022-10-18T04:49:10.088Z,100.00
2022-10-18T04:52:13.452Z,100.00
2022-10-18T04:55:15.983Z,100.00
2022-10-18T04:58:19.825Z,100.00
2022-10-18T05:01:22.363Z,100.00
2022-10-18T05:04:25.202Z,100.00
2022-10-18T05:07:27.634Z,100.00
2022-10-18T05:10:32.707Z,100.00
2022-10-18T05:13:35.122Z,100.00
2022-10-18T05:16:37.779Z,100.00
2022-10-18T05:19:40.770Z,100.00
2022-10-18T05:22:43.569Z,100.00
2022-10-18T05:25:46.337Z,100.00
2022-10-18T05:28:50.590Z,100.00
2022-10-18T05:31:53.160Z,100.00
2022-10-18T05:34:55.896Z,100.00
2022-10-18T05:37:58.391Z,100.00
2022-10-18T05:41:04.548Z,100.00
2022-10-18T05:44:07.329Z,100.00
2022-10-18T05:47:10.055Z,100.00
2022-10-18T05:50:12.683Z,100.00
2022-10-18T05:53:35.743Z,100.00
2022-10-18T05:59:47.195Z,100.00
2022-10-18T06:02:49.784Z,100.00
2022-10-18T06:05:52.589Z,100.00
2022-10-18T06:08:55.298Z,100.00
2022-10-18T06:11:58.073Z,100.00
2022-10-18T06:15:00.642Z,100.00
2022-10-18T06:18:03.403Z,100.00
2022-10-18T06:21:06.123Z,100.00
2022-10-18T06:24:08.922Z,100.00
2022-10-18T06:27:11.457Z,100.00
2022-10-18T06:30:15.628Z,100.00
2022-10-18T06:33:18.106Z,100.00
2022-10-18T06:36:24.087Z,100.00
2022-10-18T06:39:26.816Z,100.00
2022-10-18T06:42:32.236Z,100.00
2022-10-18T06:45:34.967Z,100.00
2022-10-18T06:48:38.937Z,100.00
2022-10-18T06:51:44.730Z,100.00
2022-10-18T06:54:47.470Z,100.00
2022-10-18T06:57:49.985Z,100.00
2022-10-18T07:00:52.765Z,100.00
2022-10-18T07:03:56.037Z,100.00
2022-10-18T07:06:58.834Z,100.00
2022-10-18T07:10:01.244Z,100.00
2022-10-18T07:13:27.270Z,100.00
2022-10-18T07:16:26.642Z,100.00
2022-10-18T07:19:29.412Z,100.00
2022-10-18T07:22:31.837Z,100.00
2022-10-18T07:25:35.397Z,99.72
2022-10-18T07:28:37.869Z,96.09
2022-10-18T07:31:41.038Z,94.32
2022-10-18T07:34:43.613Z,94.00
2022-10-18T07:37:46.345Z,93.33
2022-10-18T07:40:48.998Z,91.65
2022-10-18T07:43:52.927Z,89.92
2022-10-18T07:46:55.428Z,87.29
2022-10-18T07:50:02.409Z,86.51
2022-10-18T07:53:04.908Z,83.38
2022-10-18T07:56:15.869Z,83.90
2022-10-18T07:59:18.390Z,81.46
2022-10-18T08:02:21.100Z,80.60
2022-10-18T08:05:24.746Z,79.07
2022-10-18T08:08:27.935Z,79.25
2022-10-18T08:11:30.689Z,76.35
2022-10-18T08:14:33.177Z,76.42
2022-10-18T08:17:35.942Z,73.50
2022-10-18T08:20:43.752Z,71.67
2022-10-18T08:23:47.511Z,70.08
2022-10-18T08:26:50.538Z,70.03
2022-10-18T08:29:53.374Z,68.87
2022-10-18T08:32:55.867Z,69.12
2022-10-18T08:36:00.828Z,67.63
2022-10-18T08:39:03.706Z,67.23
2022-10-18T08:42:39.803Z,66.40
2022-10-18T08:45:44.251Z,65.51
2022-10-18T08:48:54.124Z,65.50
2022-10-18T08:51:58.128Z,67.02
2022-10-18T08:55:17.286Z,65.33
2022-10-18T08:58:21.521Z,64.59
2022-10-18T09:01:24.230Z,62.32
2022-10-18T09:04:49.238Z,60.26
2022-10-18T09:08:11.540Z,58.46
2022-10-18T09:11:35.752Z,56.12
2022-10-18T09:14:47.240Z,54.32
2022-10-18T09:18:10.539Z,54.04
2022-10-18T09:21:22.777Z,52.86
2022-10-18T09:24:43.244Z,52.35
2022-10-18T09:27:55.186Z,50.83
2022-10-18T09:31:18.930Z,52.33
2022-10-18T09:34:50.678Z,49.59
2022-10-18T09:38:00.533Z,48.70
2022-10-18T09:41:13.703Z,49.20
2022-10-18T09:44:22.505Z,49.14
2022-10-18T09:47:44.754Z,50.88
2022-10-18T09:50:54.821Z,49.73
2022-10-18T09:54:19.277Z,48.96
2022-10-18T09:57:37.610Z,48.14
2022-10-18T10:00:48.387Z,46.69
2022-10-18T10:03:51.980Z,47.44
2022-10-18T10:06:56.694Z,46.15
2022-10-18T10:10:08.474Z,45.85
2022-10-18T10:13:26.303Z,47.29
2022-10-18T10:16:29.179Z,45.24
2022-10-18T10:19:38.301Z,45.93
2022-10-18T10:22:42.514Z,45.08
2022-10-18T10:25:51.814Z,44.36
2022-10-18T10:28:57.527Z,43.31
2022-10-18T10:32:04.289Z,42.93
2022-10-18T10:35:41.297Z,42.96
2022-10-18T10:39:16.162Z,44.67
2022-10-18T10:42:19.188Z,41.67
2022-10-18T10:45:23.696Z,42.13
2022-10-18T10:48:33.001Z,41.00
2022-10-18T10:51:38.978Z,41.43
2022-10-18T10:54:50.394Z,39.31
2022-10-18T10:57:56.303Z,39.68
2022-10-18T11:01:18.423Z,38.28
2022-10-18T11:04:31.939Z,38.08
2022-10-18T11:07:44.205Z,36.33
2022-10-18T11:11:13.714Z,35.19
2022-10-18T11:14:26.590Z,37.09
2022-10-18T11:17:59.829Z,34.95
2022-10-18T11:21:15.943Z,34.53
2022-10-18T11:24:18.613Z,33.99
2022-10-18T11:27:43.090Z,32.22
2022-10-18T11:30:50.199Z,30.77
2022-10-18T11:34:20.968Z,31.34
2022-10-18T11:37:48.523Z,30.02
2022-10-18T11:41:30.550Z,29.81
2022-10-18T11:44:50.071Z,28.66
2022-10-18T11:48:13.505Z,26.35
2022-10-18T11:51:29.766Z,24.69
2022-10-18T11:55:03.294Z,24.54
2022-10-18T11:58:31.577Z,21.93
2022-10-18T12:02:11.844Z,20.72
2022-10-18T12:05:23.989Z,21.48
2022-10-18T12:08:31.636Z,22.05
2022-10-18T12:11:47.186Z,20.41
2022-10-18T12:14:50.200Z,18.93
2022-10-18T12:18:01.978Z,19.62
2022-10-18T12:21:06.451Z,19.10
2022-10-18T12:24:16.093Z,17.68
2022-10-18T12:27:23.640Z,17.87
2022-10-18T12:30:47.271Z,17.11
2022-10-18T12:33:55.581Z,17.27
2022-10-18T12:37:17.152Z,18.74
2022-10-18T12:40:25.904Z,19.93
2022-10-18T12:43:36.854Z,23.04
2022-10-18T12:47:00.030Z,25.89
2022-10-18T12:50:08.432Z,27.93
2022-10-18T12:53:19.031Z,30.63
2022-10-18T12:56:27.776Z,31.44
2022-10-18T12:59:30.146Z,32.89
2022-10-18T13:02:33.393Z,33.85
2022-10-18T13:06:06.477Z,34.25
2022-10-18T13:09:17.234Z,34.94
2022-10-18T13:12:19.763Z,35.48
2022-10-18T13:15:52.579Z,36.71
2022-10-18T13:19:08.852Z,36.12
2022-10-18T13:22:30.670Z,35.59
2022-10-18T13:25:49.872Z,35.55
2022-10-18T13:29:28.274Z,36.56
2022-10-18T13:32:47.172Z,36.08
2022-10-18T13:35:57.209Z,36.27
2022-10-18T13:39:03.334Z,35.23
2022-10-18T13:42:15.344Z,34.84
2022-10-18T13:45:33.145Z,35.29
2022-10-18T13:48:35.932Z,35.65
2022-10-18T13:51:46.554Z,36.32
2022-10-18T13:55:13.933Z,36.24
2022-10-18T13:59:13.090Z,36.10
2022-10-18T14:02:51.718Z,37.79
2022-10-18T14:06:02.962Z,37.80
2022-10-18T14:09:25.562Z,37.70
2022-10-18T14:12:44.360Z,38.77
2022-10-18T14:15:52.033Z,38.90
2022-10-18T14:19:01.053Z,39.74
2022-10-18T14:22:21.015Z,39.09
2022-10-18T14:25:30.781Z,38.35
2022-10-18T14:28:55.155Z,38.30
2022-10-18T14:31:58.062Z,39.16
2022-10-18T14:35:27.567Z,39.53
2022-10-18T14:38:24.504Z,39.98
2022-10-18T14:41:32.933Z,40.31
2022-10-18T14:44:35.817Z,40.58
2022-10-18T14:47:39.761Z,40.82
2022-10-18T14:50:46.061Z,41.07
2022-10-18T14:53:49.317Z,41.07
2022-10-18T14:56:52.602Z,40.09
2022-10-18T15:00:03.169Z,40.27
2022-10-18T15:03:11.245Z,40.16
2022-10-18T15:06:20.524Z,40.17
2022-10-18T15:09:24.405Z,40.98
2022-10-18T15:12:33.994Z,42.10
2022-10-18T15:15:49.823Z,42.59
2022-10-18T15:19:15.143Z,43.18
2022-10-18T15:22:32.132Z,45.14
2022-10-18T15:25:35.959Z,45.81
2022-10-18T15:28:52.522Z,46.24
2022-10-18T15:31:55.271Z,48.19
2022-10-18T15:35:20.986Z,46.54
2022-10-18T15:38:31.889Z,49.25
2022-10-18T15:41:43.049Z,49.49
2022-10-18T15:44:51.251Z,50.68
2022-10-18T15:48:01.341Z,50.55
2022-10-18T15:51:28.253Z,53.00
2022-10-18T15:54:31.140Z,54.40
